createdAt,value
2018-12-27T00:02:33.098Z,21.37
2018-12-27T00:05:14.386Z,19.23
2018-12-27T00:07:55.179Z,19.53
2018-12-27T00:10:36.069Z,19.47
2018-12-27T00:13:17.160Z,22.13
2018-12-27T00:15:58.510Z,23.23
2018-12-27T00:18:39.933Z,21.67
2018-12-27T00:21:21.497Z,21.50
2018-12-27T00:24:02.895Z,22.90
2018-12-27T00:26:44.141Z,21.77
2018-12-27T00:29:25.612Z,24.03
2018-12-27T00:32:07.061Z,22.43
2018-12-27T00:34:47.781Z,24.83
2018-12-27T00:37:28.612Z,21.67
2018-12-27T00:40:09.268Z,22.53
2018-12-27T00:42:50.660Z,22.60
2018-12-27T00:45:32.071Z,21.47
2018-12-27T00:48:13.782Z,22.27
2018-12-27T00:50:54.566Z,21.83
2018-12-27T00:53:36.005Z,22.63
2018-12-27T00:56:17.304Z,19.83
2018-12-27T00:58:58.037Z,21.93
2018-12-27T01:01:39.457Z,19.87
2018-12-27T01:04:20.993Z,19.63
2018-12-27T01:07:02.472Z,17.70
2018-12-27T01:09:43.224Z,19.83
2018-12-27T01:12:24.237Z,21.40
2018-12-27T01:15:04.002Z,22.70
2018-12-27T01:17:52.666Z,20.57
2018-12-27T01:20:33.663Z,21.73
2018-12-27T01:23:15.236Z,20.90
2018-12-27T01:25:56.747Z,25.90
2018-12-27T01:28:38.362Z,22.93
2018-12-27T01:31:19.605Z,22.23
2018-12-27T01:34:01.046Z,23.97
2018-12-27T01:39:50.596Z,25.17
2018-12-27T01:42:31.436Z,22.60
2018-12-27T01:45:12.540Z,23.93
2018-12-27T01:47:53.342Z,22.07
2018-12-27T01:50:34.847Z,23.90
2018-12-27T01:53:15.700Z,26.87
2018-12-27T01:55:56.983Z,27.80
2018-12-27T01:58:38.472Z,26.50
2018-12-27T02:01:20.074Z,27.23
2018-12-27T02:04:01.526Z,28.83
2018-12-27T02:06:42.886Z,27.10
2018-12-27T02:09:24.457Z,28.13
2018-12-27T02:12:05.916Z,30.97
2018-12-27T02:14:46.584Z,28.13
2018-12-27T02:17:28.001Z,30.70
2018-12-27T02:20:08.890Z,30.30
2018-12-27T02:22:49.939Z,30.47
2018-12-27T02:25:31.354Z,27.27
2018-12-27T02:31:14.180Z,30.53
2018-12-27T02:33:55.597Z,32.73
2018-12-27T02:36:36.741Z,33.57
2018-12-27T02:39:18.181Z,26.60
2018-12-27T02:41:59.374Z,28.63
2018-12-27T02:44:40.146Z,32.57
2018-12-27T02:47:21.732Z,30.43
2018-12-27T02:50:03.039Z,30.47
2018-12-27T02:52:43.804Z,25.70
2018-12-27T02:55:24.955Z,26.13
2018-12-27T02:58:05.881Z,29.23
2018-12-27T03:00:46.908Z,24.63
2018-12-27T03:03:27.675Z,27.30
2018-12-27T03:06:09.072Z,31.27
2018-12-27T03:08:50.508Z,27.70
2018-12-27T03:11:31.203Z,26.30
2018-12-27T03:14:12.208Z,28.57
2018-12-27T03:16:53.576Z,25.57
2018-12-27T03:19:35.096Z,27.07
2018-12-27T03:22:15.808Z,30.77
2018-12-27T03:24:57.199Z,28.73
2018-12-27T03:27:38.734Z,26.60
2018-12-27T03:30:20.333Z,30.57
2018-12-27T03:33:01.066Z,27.60
2018-12-27T03:35:42.164Z,26.97
2018-12-27T03:38:22.904Z,29.70
2018-12-27T03:41:04.497Z,29.27
2018-12-27T03:43:45.367Z,29.80
2018-12-27T03:46:26.517Z,26.30
2018-12-27T03:49:07.910Z,26.97
2018-12-27T03:51:48.812Z,31.63
2018-12-27T03:54:30.479Z,27.33
2018-12-27T03:57:11.979Z,30.27
2018-12-27T03:59:51.755Z,27.90
2018-12-27T04:02:32.414Z,30.03
2018-12-27T04:05:13.064Z,28.80
2018-12-27T04:07:53.743Z,31.67
2018-12-27T04:10:34.664Z,30.67
2018-12-27T04:13:16.304Z,30.03
2018-12-27T04:15:57.003Z,27.60
2018-12-27T04:18:37.733Z,32.23
2018-12-27T04:21:19.069Z,32.87
2018-12-27T04:26:58.568Z,27.47
2018-12-27T04:32:58.497Z,31.67
2018-12-27T04:35:40.094Z,33.60
2018-12-27T04:38:21.623Z,32.57
2018-12-27T04:41:03.169Z,28.73
2018-12-27T04:43:44.324Z,31.90
2018-12-27T04:46:25.825Z,29.80
2018-12-27T04:49:06.505Z,36.43
2018-12-27T04:51:48.025Z,31.93
2018-12-27T04:54:28.822Z,33.93
2018-12-27T04:57:10.152Z,31.60
2018-12-27T04:59:51.559Z,33.47
2018-12-27T05:02:32.418Z,31.43
2018-12-27T05:05:13.113Z,34.87
2018-12-27T05:07:54.580Z,31.97
2018-12-27T05:10:35.819Z,30.50
2018-12-27T05:15:58.816Z,33.07
2018-12-27T05:18:40.440Z,32.37
2018-12-27T05:21:21.116Z,31.60
2018-12-27T05:24:02.638Z,30.30
2018-12-27T05:26:44.158Z,32.20
2018-12-27T05:29:24.961Z,30.43
2018-12-27T05:32:06.634Z,32.80
2018-12-27T05:34:48.096Z,33.40
2018-12-27T05:37:29.413Z,29.70
2018-12-27T05:40:10.059Z,30.87
2018-12-27T05:42:51.564Z,31.50
2018-12-27T05:45:32.906Z,33.10
2018-12-27T05:48:14.371Z,32.77
2018-12-27T05:50:55.781Z,29.73
2018-12-27T05:53:36.710Z,30.60
2018-12-27T05:56:17.932Z,31.90
2018-12-27T05:58:59.132Z,31.27
2018-12-27T06:01:40.530Z,31.87
2018-12-27T06:04:22.137Z,31.97
2018-12-27T06:07:03.000Z,30.60
2018-12-27T06:09:43.982Z,33.07
2018-12-27T06:12:25.406Z,32.57
2018-12-27T06:15:07.028Z,32.07
2018-12-27T06:17:46.602Z,33.07
2018-12-27T06:20:27.479Z,35.27
2018-12-27T06:23:08.412Z,30.77
2018-12-27T06:25:49.833Z,30.50
2018-12-27T06:28:30.841Z,28.67
2018-12-27T06:31:11.970Z,31.30
2018-12-27T06:33:53.490Z,30.47
2018-12-27T06:36:34.676Z,29.60
2018-12-27T06:42:27.992Z,27.23
2018-12-27T06:45:08.612Z,29.90
2018-12-27T06:47:50.317Z,28.33
2018-12-27T06:50:31.111Z,29.23
2018-12-27T06:53:11.882Z,27.70
2018-12-27T06:55:53.271Z,28.93
2018-12-27T06:58:37.740Z,28.33
2018-12-27T07:01:16.460Z,27.70
2018-12-27T07:03:58.072Z,30.20
2018-12-27T07:06:39.273Z,27.77
2018-12-27T07:09:19.972Z,26.63
2018-12-27T07:12:00.670Z,27.53
2018-12-27T07:14:42.144Z,27.47
2018-12-27T07:17:23.683Z,27.27
2018-12-27T07:20:05.270Z,27.17
2018-12-27T07:22:46.473Z,26.03
2018-12-27T07:25:27.499Z,29.53
2018-12-27T07:28:08.479Z,26.40
2018-12-27T07:30:38.027Z,28.83
2018-12-27T07:33:26.654Z,25.73
2018-12-27T07:36:15.249Z,25.43
2018-12-27T07:38:56.732Z,27.97
2018-12-27T07:41:38.394Z,27.47
2018-12-27T07:44:19.897Z,29.90
2018-12-27T07:47:01.180Z,26.63
2018-12-27T07:49:42.736Z,26.20
2018-12-27T07:52:24.229Z,26.57
2018-12-27T07:55:04.982Z,24.63
2018-12-27T07:57:46.392Z,27.23
2018-12-27T08:00:27.399Z,27.77
2018-12-27T08:03:09.050Z,29.33
2018-12-27T08:08:34.409Z,29.93
2018-12-27T08:14:35.129Z,30.90
2018-12-27T08:17:16.409Z,27.27
2018-12-27T08:19:57.883Z,30.40
2018-12-27T08:25:21.164Z,28.37
2018-12-27T08:28:02.855Z,29.27
2018-12-27T08:30:44.346Z,29.30
2018-12-27T08:33:25.204Z,28.10
2018-12-27T08:36:06.311Z,29.13
2018-12-27T08:38:47.650Z,29.97
2018-12-27T08:41:29.170Z,27.93
2018-12-27T08:44:10.703Z,28.83
2018-12-27T08:46:51.982Z,28.33
2018-12-27T08:49:32.750Z,26.87
2018-12-27T08:52:14.174Z,27.67
2018-12-27T08:54:55.145Z,27.80
2018-12-27T08:57:36.279Z,28.00
2018-12-27T09:00:17.021Z,26.87
2018-12-27T09:02:57.884Z,25.67
2018-12-27T09:05:39.084Z,25.50
2018-12-27T09:08:20.086Z,21.93
2018-12-27T09:11:01.265Z,29.90
2018-12-27T09:13:42.158Z,28.00
2018-12-27T09:16:23.508Z,26.57
2018-12-27T09:19:04.426Z,22.60
2018-12-27T09:21:45.463Z,25.00
2018-12-27T09:24:27.059Z,21.13
2018-12-27T09:27:08.233Z,23.20
2018-12-27T09:29:49.061Z,21.70
2018-12-27T09:32:30.360Z,22.60
2018-12-27T09:35:11.991Z,22.00
2018-12-27T09:37:53.664Z,21.80
2018-12-27T09:40:34.768Z,21.10
2018-12-27T09:43:16.265Z,21.30
2018-12-27T09:45:57.588Z,20.97
2018-12-27T09:48:39.089Z,25.23
2018-12-27T09:51:20.335Z,21.53
2018-12-27T09:54:04.918Z,21.27
2018-12-27T09:56:45.950Z,20.93
2018-12-27T09:59:27.454Z,22.27
2018-12-27T10:02:08.821Z,19.77
2018-12-27T10:04:49.487Z,20.00
2018-12-27T10:07:30.906Z,19.60
2018-12-27T10:10:11.991Z,19.87
2018-12-27T10:12:52.788Z,19.47
2018-12-27T10:15:37.113Z,19.90
2018-12-27T10:18:18.092Z,18.17
2018-12-27T10:20:59.781Z,19.17
2018-12-27T10:23:40.766Z,18.87
2018-12-27T10:26:10.315Z,17.90
2018-12-27T10:28:58.916Z,21.47
2018-12-27T10:31:39.741Z,17.10
2018-12-27T10:34:21.184Z,19.10
2018-12-27T10:37:02.598Z,16.80
2018-12-27T10:42:27.676Z,15.63
2018-12-27T10:48:18.278Z,16.10
2018-12-27T10:50:59.705Z,14.60
2018-12-27T10:53:40.914Z,20.50
2018-12-27T10:56:22.535Z,18.67
2018-12-27T10:59:03.406Z,17.67
2018-12-27T11:01:44.429Z,17.60
2018-12-27T11:04:25.216Z,16.10
2018-12-27T11:07:06.509Z,19.60
2018-12-27T11:09:48.233Z,19.90
2018-12-27T11:12:29.794Z,17.73
2018-12-27T11:15:16.527Z,16.03
2018-12-27T11:26:49.831Z,18.97
2018-12-27T11:29:31.268Z,17.87
2018-12-27T11:32:12.353Z,20.23
2018-12-27T11:34:53.187Z,19.93
2018-12-27T11:37:34.175Z,17.57
2018-12-27T11:40:14.925Z,20.43
2018-12-27T11:42:55.776Z,21.63
2018-12-27T11:45:36.911Z,18.43
2018-12-27T11:48:17.643Z,17.80
2018-12-27T11:50:47.239Z,18.53
2018-12-27T11:59:46.827Z,18.00
2018-12-27T12:02:31.183Z,16.97
2018-12-27T12:05:11.616Z,15.13
2018-12-27T12:07:53.005Z,17.13
2018-12-27T12:10:22.620Z,15.83
2018-12-27T12:13:11.285Z,17.90
2018-12-27T12:19:02.560Z,20.00
2018-12-27T12:21:43.743Z,17.00
2018-12-27T12:24:25.275Z,19.97
2018-12-27T12:27:06.958Z,16.63
2018-12-27T12:29:48.593Z,17.37
2018-12-27T12:32:30.013Z,16.90
2018-12-27T12:35:10.976Z,19.60
2018-12-27T12:37:52.442Z,17.67
2018-12-27T12:40:34.118Z,17.83
2018-12-27T12:43:15.596Z,15.77
2018-12-27T12:45:57.378Z,16.70
2018-12-27T12:48:39.111Z,16.77
2018-12-27T12:51:20.600Z,16.17
2018-12-27T12:54:02.183Z,16.80
2018-12-27T12:56:43.082Z,16.83
2018-12-27T12:59:24.679Z,15.33
2018-12-27T13:02:06.327Z,16.27
2018-12-27T13:04:47.740Z,13.93
2018-12-27T13:07:29.078Z,15.63
2018-12-27T13:12:59.694Z,14.03
2018-12-27T13:15:41.147Z,14.77
2018-12-27T13:18:22.825Z,16.73
2018-12-27T13:21:03.603Z,15.17
2018-12-27T13:23:44.397Z,20.77
2018-12-27T13:26:25.891Z,16.80
2018-12-27T13:29:07.299Z,16.87
2018-12-27T13:31:48.736Z,17.10
2018-12-27T13:34:29.599Z,20.10
2018-12-27T13:37:10.860Z,15.20
2018-12-27T13:39:52.452Z,16.83
2018-12-27T13:42:33.918Z,16.43
2018-12-27T13:45:15.370Z,15.87
2018-12-27T13:47:56.769Z,20.93
2018-12-27T13:50:38.016Z,15.50
2018-12-27T13:53:19.203Z,16.50
2018-12-27T13:56:00.462Z,17.53
2018-12-27T13:58:41.852Z,16.47
2018-12-27T14:01:11.512Z,17.10
2018-12-27T14:04:00.145Z,20.30
2018-12-27T14:06:41.608Z,17.30
2018-12-27T14:09:23.208Z,16.90
2018-12-27T14:12:04.429Z,18.47
2018-12-27T14:14:45.674Z,18.57
2018-12-27T14:17:27.178Z,16.90
2018-12-27T14:20:08.604Z,19.37
2018-12-27T14:22:49.973Z,17.77
2018-12-27T14:25:32.373Z,17.97
2018-12-27T14:28:14.034Z,21.43
2018-12-27T14:30:55.588Z,18.07
2018-12-27T14:33:37.095Z,18.03
2018-12-27T14:36:18.461Z,17.80
2018-12-27T14:38:58.183Z,19.77
2018-12-27T14:41:46.761Z,20.33
2018-12-27T14:44:28.368Z,18.33
2018-12-27T14:47:10.030Z,19.33
2018-12-27T14:49:50.866Z,21.50
2018-12-27T14:52:32.564Z,17.77
2018-12-27T14:55:14.203Z,20.37
2018-12-27T14:57:55.555Z,19.03
2018-12-27T15:00:37.274Z,17.57
2018-12-27T15:03:18.509Z,18.27
2018-12-27T15:05:59.395Z,19.60
2018-12-27T15:08:40.803Z,20.50
2018-12-27T15:11:22.523Z,19.17
2018-12-27T15:14:03.825Z,18.73
2018-12-27T15:16:45.303Z,20.03
2018-12-27T15:19:26.713Z,17.23
2018-12-27T15:22:07.481Z,17.80
2018-12-27T15:24:49.049Z,20.43
2018-12-27T15:27:30.536Z,19.50
2018-12-27T15:30:11.972Z,22.00
2018-12-27T15:32:53.628Z,21.43
2018-12-27T15:35:35.329Z,16.87
2018-12-27T15:38:16.905Z,18.80
2018-12-27T15:40:58.525Z,17.77
2018-12-27T15:43:39.276Z,16.60
2018-12-27T15:46:20.640Z,18.80
2018-12-27T15:49:02.194Z,17.70
2018-12-27T15:51:43.773Z,17.67
2018-12-27T15:54:24.532Z,17.27
2018-12-27T15:57:06.037Z,19.23
2018-12-27T15:59:46.935Z,20.13
2018-12-27T16:02:28.416Z,17.73
2018-12-27T16:05:11.381Z,17.27
2018-12-27T16:07:52.317Z,17.87
2018-12-27T16:10:35.263Z,17.03
2018-12-27T16:13:16.091Z,17.43
2018-12-27T16:15:57.599Z,17.63
2018-12-27T16:18:39.004Z,16.73
2018-12-27T16:21:19.835Z,19.53
2018-12-27T16:24:01.041Z,16.90
2018-12-27T16:26:41.830Z,17.63
2018-12-27T16:29:22.896Z,17.50
2018-12-27T16:32:04.409Z,20.40
2018-12-27T16:34:45.721Z,17.13
2018-12-27T16:37:27.222Z,18.33
2018-12-27T16:40:08.528Z,18.37
2018-12-27T16:42:49.281Z,24.83
2018-12-27T16:45:30.901Z,19.20
2018-12-27T16:48:12.542Z,16.43
2018-12-27T16:50:42.343Z,15.80
2018-12-27T16:53:31.079Z,16.70
2018-12-27T16:56:19.918Z,15.17
2018-12-27T16:59:01.098Z,16.93
2018-12-27T17:01:42.810Z,18.90
2018-12-27T17:04:24.111Z,17.13
2018-12-27T17:07:06.319Z,17.33
2018-12-27T17:15:47.902Z,16.63
2018-12-27T17:18:28.718Z,15.80
2018-12-27T17:21:10.206Z,16.07
2018-12-27T17:23:51.687Z,16.70
2018-12-27T17:26:21.234Z,16.23
2018-12-27T17:29:02.037Z,17.20
2018-12-27T17:31:42.753Z,18.20
2018-12-27T17:34:23.490Z,16.23
2018-12-27T17:37:04.547Z,16.67
2018-12-27T17:39:45.575Z,17.27
2018-12-27T17:42:26.933Z,15.67
2018-12-27T17:45:08.150Z,16.73
2018-12-27T17:47:48.888Z,14.67
2018-12-27T17:50:30.468Z,15.70
2018-12-27T17:53:11.190Z,15.03
2018-12-27T17:55:50.893Z,16.07
2018-12-27T17:58:31.753Z,19.17
2018-12-27T18:01:12.827Z,19.67
2018-12-27T18:03:53.695Z,17.20
2018-12-27T18:06:35.096Z,18.33
2018-12-27T18:09:17.428Z,16.90
2018-12-27T18:12:03.575Z,15.00
2018-12-27T18:14:46.554Z,14.57
2018-12-27T18:17:49.917Z,15.03
2018-12-27T18:20:16.344Z,15.20
2018-12-27T18:22:57.477Z,15.90
2018-12-27T18:25:38.747Z,15.10
2018-12-27T18:28:19.588Z,15.63
2018-12-27T18:31:01.199Z,14.43
2018-12-27T18:33:42.750Z,14.40
2018-12-27T18:36:23.732Z,15.87
2018-12-27T18:45:07.840Z,16.73
2018-12-27T18:50:26.627Z,14.97
2018-12-27T18:53:15.532Z,14.37
2018-12-27T18:55:56.574Z,14.87
2018-12-27T18:58:38.514Z,13.90
2018-12-27T19:01:19.899Z,15.73
2018-12-27T19:04:01.205Z,14.90
2018-12-27T19:06:42.462Z,15.20
2018-12-27T19:09:24.247Z,14.50
2018-12-27T19:12:05.648Z,16.07
2018-12-27T19:14:46.572Z,14.50
2018-12-27T19:17:54.348Z,14.70
2018-12-27T19:20:44.201Z,16.10
2018-12-27T19:23:25.051Z,13.23
2018-12-27T19:25:55.168Z,15.80
2018-12-27T19:28:44.507Z,14.77
2018-12-27T19:31:33.257Z,14.73
2018-12-27T19:34:15.284Z,13.63
2018-12-27T19:36:45.379Z,13.70
2018-12-27T19:39:16.603Z,13.97
2018-12-27T19:45:15.269Z,14.03
2018-12-27T19:47:56.495Z,14.97
2018-12-27T19:50:37.599Z,14.87
2018-12-27T19:53:18.901Z,15.10
2018-12-27T19:56:00.600Z,17.17
2018-12-27T19:58:42.079Z,14.07
2018-12-27T20:01:12.289Z,14.97
2018-12-27T20:04:01.275Z,15.73
2018-12-27T20:06:31.613Z,15.77
2018-12-27T20:09:22.013Z,13.80
2018-12-27T20:12:03.497Z,14.53
2018-12-27T20:14:45.045Z,13.77
2018-12-27T20:17:26.396Z,13.00
2018-12-27T20:20:07.464Z,14.70
2018-12-27T20:22:49.185Z,15.23
2018-12-27T20:25:31.360Z,14.63
2018-12-27T20:28:13.908Z,14.57
2018-12-27T20:30:56.791Z,14.43
2018-12-27T20:33:38.374Z,13.80
2018-12-27T20:36:21.526Z,13.63
2018-12-27T20:39:02.795Z,14.20
2018-12-27T20:41:43.755Z,13.33
2018-12-27T20:44:24.392Z,14.70
2018-12-27T20:47:06.978Z,14.43
2018-12-27T20:49:48.449Z,14.00
2018-12-27T20:52:29.380Z,17.03
2018-12-27T20:55:11.542Z,16.17
2018-12-27T20:57:52.678Z,15.57
2018-12-27T21:00:33.898Z,14.03
2018-12-27T21:03:15.119Z,14.80
2018-12-27T21:05:56.576Z,16.20
2018-12-27T21:08:38.452Z,13.80
2018-12-27T21:11:19.518Z,15.03
2018-12-27T21:14:02.254Z,15.33
2018-12-27T21:16:43.876Z,15.30
2018-12-27T21:19:26.123Z,13.87
2018-12-27T21:22:07.456Z,15.70
2018-12-27T21:24:37.571Z,15.00
2018-12-27T21:27:26.537Z,13.87
2018-12-27T21:30:07.645Z,13.27
2018-12-27T21:32:48.753Z,14.10
2018-12-27T21:35:31.953Z,14.80
2018-12-27T21:38:13.524Z,14.47
2018-12-27T21:40:54.993Z,12.77
2018-12-27T21:43:25.380Z,13.67
2018-12-27T21:49:17.056Z,13.23
2018-12-27T21:51:57.968Z,13.80
2018-12-27T21:57:28.322Z,14.00
2018-12-27T22:00:10.990Z,15.00
2018-12-27T22:02:52.437Z,13.73
2018-12-27T22:05:33.719Z,12.20
2018-12-27T22:08:15.230Z,13.30
2018-12-27T22:10:57.184Z,12.77
2018-12-27T22:13:38.704Z,13.07
2018-12-27T22:16:20.205Z,12.67
2018-12-27T22:19:01.235Z,12.77
2018-12-27T22:21:42.594Z,13.63
2018-12-27T22:24:24.252Z,13.17
2018-12-27T22:27:06.338Z,13.87
2018-12-27T22:29:48.238Z,13.70
2018-12-27T22:35:42.298Z,14.30
2018-12-27T22:38:23.694Z,12.83
2018-12-27T22:41:06.174Z,14.30
2018-12-27T22:43:47.430Z,13.57
2018-12-27T22:46:28.919Z,13.83
2018-12-27T22:49:10.460Z,12.87
2018-12-27T22:51:52.293Z,17.23
2018-12-27T22:54:33.697Z,12.37
2018-12-27T22:57:03.720Z,13.07
2018-12-27T22:59:52.532Z,13.23
2018-12-27T23:02:34.163Z,11.90
2018-12-27T23:05:15.955Z,12.70
2018-12-27T23:07:57.081Z,14.27
2018-12-27T23:10:38.402Z,17.17
2018-12-27T23:13:20.262Z,12.33
2018-12-27T23:16:02.081Z,12.63
2018-12-27T23:18:43.876Z,14.63
2018-12-27T23:21:25.534Z,12.50
2018-12-27T23:24:06.936Z,12.63
2018-12-27T23:26:48.728Z,12.80
2018-12-27T23:29:30.510Z,12.47
2018-12-27T23:32:12.067Z,12.53
2018-12-27T23:34:53.637Z,13.00
2018-12-27T23:37:35.026Z,13.10
2018-12-27T23:40:16.398Z,13.07
2018-12-27T23:42:57.630Z,11.50
2018-12-27T23:45:39.009Z,12.13
2018-12-27T23:48:20.771Z,12.53
2018-12-27T23:50:50.983Z,12.33
2018-12-27T23:53:39.840Z,12.97
2018-12-27T23:56:21.503Z,12.67
2018-12-27T23:59:03.701Z,13.27
